createdAt,value
2023-01-31T00:01:41.406Z,98916.66
2023-01-31T00:04:14.370Z,98915.52
2023-01-31T00:06:44.669Z,98920.16
2023-01-31T00:09:15.180Z,98910.90
2023-01-31T00:11:42.008Z,98913.83
2023-01-31T00:14:10.764Z,98917.14
2023-01-31T00:16:37.703Z,98924.20
2023-01-31T00:19:05.283Z,98930.02
2023-01-31T00:21:34.931Z,98934.35
2023-01-31T00:24:02.490Z,98933.56
2023-01-31T00:26:32.295Z,98930.09
2023-01-31T00:29:01.520Z,98932.91
2023-01-31T00:31:30.577Z,98930.15
2023-01-31T00:33:58.476Z,98932.89
2023-01-31T00:36:29.138Z,98938.95
2023-01-31T00:38:58.180Z,98946.61
2023-01-31T00:41:27.605Z,98948.73
2023-01-31T00:43:55.179Z,98956.05
2023-01-31T00:46:23.907Z,98953.65
2023-01-31T00:48:51.537Z,98958.02
2023-01-31T00:51:19.607Z,98959.08
2023-01-31T00:53:47.413Z,98962.60
2023-01-31T00:56:17.301Z,98961.98
2023-01-31T00:58:44.042Z,98962.08
2023-01-31T01:01:14.842Z,98961.98
2023-01-31T01:03:43.484Z,98963.50
2023-01-31T01:06:11.606Z,98967.11
2023-01-31T01:08:40.529Z,98966.95
2023-01-31T01:11:13.837Z,98970.98
2023-01-31T01:13:41.400Z,98969.08
2023-01-31T01:16:14.984Z,98969.04
2023-01-31T01:18:44.919Z,98967.64
2023-01-31T01:21:15.761Z,98980.55
2023-01-31T01:23:43.323Z,98980.27
2023-01-31T01:26:20.402Z,98987.42
2023-01-31T01:28:50.478Z,98992.83
2023-01-31T01:31:19.647Z,98994.10
2023-01-31T01:33:48.248Z,98996.52
2023-01-31T01:36:17.491Z,98997.41
2023-01-31T01:38:46.102Z,98996.66
2023-01-31T01:41:14.069Z,99002.70
2023-01-31T01:43:46.874Z,99006.14
2023-01-31T01:46:19.150Z,99008.80
2023-01-31T01:48:51.222Z,99009.59
2023-01-31T01:51:19.875Z,99012.16
2023-01-31T01:53:52.990Z,99019.70
2023-01-31T01:56:24.472Z,99021.39
2023-01-31T01:59:03.283Z,99023.23
2023-01-31T02:01:35.075Z,99032.98
2023-01-31T02:04:09.746Z,99035.73
2023-01-31T02:06:36.668Z,99041.82
2023-01-31T02:09:08.147Z,99042.96
2023-01-31T02:11:35.933Z,99040.81
2023-01-31T02:14:11.778Z,99050.33
2023-01-31T02:16:38.742Z,99052.09
2023-01-31T02:19:18.979Z,99053.94
2023-01-31T02:22:02.201Z,99065.87
2023-01-31T02:24:38.873Z,99069.67
2023-01-31T02:27:34.675Z,99072.95
2023-01-31T02:30:14.426Z,99082.73
2023-01-31T02:32:47.609Z,99076.06
2023-01-31T02:35:29.010Z,99084.52
2023-01-31T02:38:02.288Z,99092.51
2023-01-31T02:40:41.105Z,99091.33
2023-01-31T02:43:33.300Z,99090.40
2023-01-31T02:46:12.802Z,99097.05
2023-01-31T02:48:52.106Z,99091.17
2023-01-31T02:51:26.693Z,99094.23
2023-01-31T02:54:13.846Z,99102.63
2023-01-31T02:56:44.675Z,99104.38
2023-01-31T02:59:22.441Z,99106.42
2023-01-31T03:01:58.327Z,99116.69
2023-01-31T03:04:25.606Z,99118.34
2023-01-31T03:07:26.852Z,99121.86
2023-01-31T03:10:03.396Z,99132.81
2023-01-31T03:12:43.331Z,99132.02
2023-01-31T03:15:10.514Z,99138.38
2023-01-31T03:17:50.215Z,99142.11
2023-01-31T03:20:41.318Z,99136.79
2023-01-31T03:23:13.903Z,99136.27
2023-01-31T03:25:42.151Z,99139.27
2023-01-31T03:28:14.735Z,99147.06
2023-01-31T03:30:57.305Z,99155.78
2023-01-31T03:33:33.222Z,99153.71
2023-01-31T03:36:12.558Z,99158.46
2023-01-31T03:38:53.978Z,99163.02
2023-01-31T03:41:25.340Z,99160.10
2023-01-31T03:44:03.142Z,99165.23
2023-01-31T03:46:37.881Z,99169.02
2023-01-31T03:49:09.152Z,99172.65
2023-01-31T03:51:42.118Z,99178.03
2023-01-31T03:54:19.208Z,99180.51
2023-01-31T03:56:47.785Z,99173.33
2023-01-31T03:59:26.691Z,99180.42
2023-01-31T04:01:58.524Z,99182.66
2023-01-31T04:04:40.793Z,99180.96
2023-01-31T04:07:08.932Z,99186.24
2023-01-31T04:09:38.434Z,99189.38
2023-01-31T04:12:05.750Z,99188.37
2023-01-31T04:14:32.685Z,99189.79
2023-01-31T04:16:59.599Z,99189.91
2023-01-31T04:19:26.553Z,99191.60
2023-01-31T04:21:53.418Z,99196.39
2023-01-31T04:24:20.240Z,99197.58
2023-01-31T04:26:47.157Z,99197.96
2023-01-31T04:29:14.083Z,99203.44
2023-01-31T04:31:41.569Z,99206.22
2023-01-31T04:34:09.281Z,99210.42
2023-01-31T04:36:36.588Z,99220.52
2023-01-31T04:39:03.811Z,99219.96
2023-01-31T04:41:30.765Z,99225.47
2023-01-31T04:43:57.977Z,99232.41
2023-01-31T04:46:24.884Z,99231.45
2023-01-31T04:48:51.825Z,99233.65
2023-01-31T04:51:21.361Z,99239.15
2023-01-31T04:53:48.425Z,99245.75
2023-01-31T04:56:15.242Z,99250.11
2023-01-31T04:58:42.114Z,99243.34
2023-01-31T05:01:09.386Z,99253.77
2023-01-31T05:03:36.483Z,99248.89
2023-01-31T05:06:03.504Z,99246.09
2023-01-31T05:08:30.287Z,99256.68
2023-01-31T05:10:59.331Z,99259.45
2023-01-31T05:13:27.155Z,99262.82
2023-01-31T05:15:54.639Z,99274.72
2023-01-31T05:18:21.649Z,99261.85
2023-01-31T05:20:51.774Z,99278.64
2023-01-31T05:23:19.621Z,99284.49
2023-01-31T05:25:50.560Z,99292.60
2023-01-31T05:28:18.822Z,99289.16
2023-01-31T05:30:46.057Z,99296.66
2023-01-31T05:33:13.896Z,99302.04
2023-01-31T05:35:42.538Z,99290.56
2023-01-31T05:38:10.069Z,99300.38
2023-01-31T05:40:36.997Z,99292.25
2023-01-31T05:43:04.242Z,99306.83
2023-01-31T05:45:32.658Z,99317.91
2023-01-31T05:47:59.996Z,99326.65
2023-01-31T05:50:26.968Z,99324.19
2023-01-31T05:52:56.294Z,99333.29
2023-01-31T05:55:23.573Z,99343.15
2023-01-31T05:57:50.467Z,99346.96
2023-01-31T06:00:17.655Z,99351.55
2023-01-31T06:02:44.583Z,99349.84
2023-01-31T06:05:12.449Z,99355.17
2023-01-31T06:07:39.767Z,99365.12
2023-01-31T06:10:09.201Z,99368.77
2023-01-31T06:12:36.729Z,99375.06
2023-01-31T06:15:04.598Z,99377.81
2023-01-31T06:17:32.128Z,99382.59
2023-01-31T06:19:59.209Z,99384.98
2023-01-31T06:22:26.623Z,99394.57
2023-01-31T06:24:53.576Z,99394.96
2023-01-31T06:27:20.427Z,99397.59
2023-01-31T06:29:47.213Z,99401.39
2023-01-31T06:32:14.060Z,99407.88
2023-01-31T06:34:40.879Z,99411.27
2023-01-31T06:37:11.145Z,99411.99
2023-01-31T06:39:38.015Z,99416.88
2023-01-31T06:42:05.747Z,99417.85
2023-01-31T06:44:33.693Z,99425.20
2023-01-31T06:47:01.692Z,99429.12
2023-01-31T06:49:29.468Z,99438.16
2023-01-31T06:51:56.815Z,99444.61
2023-01-31T06:54:23.810Z,99446.09
2023-01-31T06:56:50.701Z,99450.17
2023-01-31T06:59:17.614Z,99459.26
2023-01-31T07:01:44.435Z,99460.86
2023-01-31T07:04:11.278Z,99459.88
2023-01-31T07:06:38.057Z,99464.29
2023-01-31T07:09:05.448Z,99470.84
2023-01-31T07:11:32.625Z,99477.08
2023-01-31T07:13:59.601Z,99485.25
2023-01-31T07:16:26.580Z,99482.58
2023-01-31T07:18:54.503Z,99490.48
2023-01-31T07:21:24.891Z,99495.68
2023-01-31T07:23:52.229Z,99502.23
2023-01-31T07:26:19.213Z,99500.74
2023-01-31T07:28:46.424Z,99503.55
2023-01-31T07:31:15.270Z,99507.23
2023-01-31T07:33:42.766Z,99514.35
2023-01-31T07:36:13.424Z,99517.85
2023-01-31T07:38:41.207Z,99518.44
2023-01-31T07:41:10.176Z,99522.89
2023-01-31T07:43:37.337Z,99529.33
2023-01-31T07:46:10.701Z,99528.54
2023-01-31T07:48:38.422Z,99534.73
2023-01-31T07:51:05.523Z,99536.09
2023-01-31T07:53:36.373Z,99542.61
2023-01-31T07:56:11.647Z,99547.97
2023-01-31T07:58:40.307Z,99545.63
2023-01-31T08:01:27.082Z,99556.58
2023-01-31T08:03:54.197Z,99556.55
2023-01-31T08:06:21.483Z,99553.45
2023-01-31T08:08:48.457Z,99555.06
2023-01-31T08:11:15.554Z,99559.16
2023-01-31T08:13:42.559Z,99571.67
2023-01-31T08:16:10.020Z,99570.21
2023-01-31T08:18:38.343Z,99572.95
2023-01-31T08:21:06.939Z,99580.22
2023-01-31T08:23:34.820Z,99583.55
2023-01-31T08:26:08.880Z,99582.02
2023-01-31T08:28:36.023Z,99594.13
2023-01-31T08:31:09.122Z,99595.23
2023-01-31T08:33:38.502Z,99601.35
2023-01-31T08:36:36.382Z,99605.49
2023-01-31T08:39:04.405Z,99608.70
2023-01-31T08:41:33.384Z,99614.80
2023-01-31T08:44:02.858Z,99622.11
2023-01-31T08:46:36.327Z,99617.74
2023-01-31T08:49:05.736Z,99615.29
2023-01-31T08:51:33.152Z,99614.84
2023-01-31T08:54:00.161Z,99611.51
2023-01-31T08:56:28.118Z,99621.10
2023-01-31T08:58:55.506Z,99627.23
2023-01-31T09:01:23.435Z,99631.69
2023-01-31T09:03:56.313Z,99628.98
2023-01-31T09:06:26.289Z,99629.68
2023-01-31T09:08:53.251Z,99623.02
2023-01-31T09:11:20.819Z,99635.36
2023-01-31T09:13:51.572Z,99626.11
2023-01-31T09:16:19.974Z,99635.98
2023-01-31T09:18:47.599Z,99634.77
2023-01-31T09:21:18.063Z,99641.47
2023-01-31T09:23:45.941Z,99635.05
2023-01-31T09:26:14.102Z,99633.85
2023-01-31T09:28:45.663Z,99638.95
2023-01-31T09:31:15.752Z,99639.42
2023-01-31T09:33:43.565Z,99647.16
2023-01-31T09:36:16.190Z,99644.98
2023-01-31T09:38:43.538Z,99638.05
2023-01-31T09:41:36.345Z,99639.68
2023-01-31T09:44:11.026Z,99639.34
2023-01-31T09:46:42.984Z,99640.33
2023-01-31T09:49:19.704Z,99644.03
2023-01-31T09:51:52.835Z,99644.83
2023-01-31T09:54:26.389Z,99645.55
2023-01-31T09:57:14.864Z,99645.52
2023-01-31T10:00:08.700Z,99655.13
2023-01-31T10:02:53.742Z,99653.65
2023-01-31T10:05:39.309Z,99658.63
2023-01-31T10:08:41.284Z,99655.83
2023-01-31T10:11:27.364Z,99644.70
2023-01-31T10:13:58.619Z,99658.43
2023-01-31T10:16:41.679Z,99654.25
2023-01-31T10:19:14.982Z,99661.27
2023-01-31T10:22:07.996Z,99661.77
2023-01-31T10:24:54.983Z,99663.44
2023-01-31T10:27:41.009Z,99655.91
2023-01-31T10:30:16.556Z,99653.58
2023-01-31T10:32:48.934Z,99651.85
2023-01-31T10:35:31.676Z,99664.29
2023-01-31T10:38:06.051Z,99658.63
2023-01-31T10:40:42.273Z,99655.60
2023-01-31T10:43:37.916Z,99660.42
2023-01-31T10:46:13.300Z,99664.38
2023-01-31T10:48:47.188Z,99666.65
2023-01-31T10:51:33.941Z,99667.10
2023-01-31T10:54:15.764Z,99664.05
2023-01-31T10:56:45.633Z,99665.36
2023-01-31T10:59:32.781Z,99669.05
2023-01-31T11:02:02.323Z,99673.19
2023-01-31T11:04:40.163Z,99673.77
2023-01-31T11:07:08.583Z,99669.92
2023-01-31T11:09:40.453Z,99669.70
2023-01-31T11:12:08.711Z,99664.29
2023-01-31T11:14:36.918Z,99670.65
2023-01-31T11:17:09.453Z,99669.15
2023-01-31T11:19:41.412Z,99661.30
2023-01-31T11:22:17.354Z,99672.33
2023-01-31T11:24:49.400Z,99671.09
2023-01-31T11:27:31.030Z,99664.02
2023-01-31T11:30:04.382Z,99665.59
2023-01-31T11:32:35.911Z,99665.53
2023-01-31T11:35:06.170Z,99665.98
2023-01-31T11:37:34.868Z,99663.47
2023-01-31T11:40:22.843Z,99664.98
2023-01-31T11:42:55.840Z,99678.14
2023-01-31T11:45:29.932Z,99668.95
2023-01-31T11:48:12.224Z,99656.16
2023-01-31T11:50:57.056Z,99660.48
2023-01-31T11:53:26.392Z,99670.23
2023-01-31T11:55:57.799Z,99672.74
2023-01-31T11:58:38.029Z,99670.95
2023-01-31T12:01:14.916Z,99659.83
2023-01-31T12:04:01.907Z,99659.09
2023-01-31T12:06:33.390Z,99661.27
2023-01-31T12:09:02.592Z,99655.67
2023-01-31T12:11:35.744Z,99658.28
2023-01-31T12:14:15.240Z,99659.04
2023-01-31T12:16:44.882Z,99654.15
2023-01-31T12:19:12.019Z,99655.55
2023-01-31T12:22:04.216Z,99645.69
2023-01-31T12:24:33.962Z,99642.65
2023-01-31T12:27:22.245Z,99645.14
2023-01-31T12:30:17.858Z,99643.63
2023-01-31T12:33:17.193Z,99646.86
2023-01-31T12:36:15.938Z,99647.05
2023-01-31T12:38:56.806Z,99641.63
2023-01-31T12:41:39.929Z,99643.15
2023-01-31T12:44:32.839Z,99642.89
2023-01-31T12:47:48.911Z,99640.33
2023-01-31T12:50:26.471Z,99639.36
2023-01-31T12:53:11.803Z,99640.85
2023-01-31T12:55:38.775Z,99638.23
2023-01-31T12:58:23.600Z,99634.90
2023-01-31T13:01:11.185Z,99635.88
2023-01-31T13:03:59.931Z,99640.27
2023-01-31T13:06:33.496Z,99640.67
2023-01-31T13:09:23.951Z,99640.96
2023-01-31T13:11:54.329Z,99636.38
2023-01-31T13:14:24.757Z,99633.70
2023-01-31T13:16:57.337Z,99634.11
2023-01-31T13:19:30.046Z,99634.96
2023-01-31T13:22:01.397Z,99630.10
2023-01-31T13:24:40.479Z,99625.81
2023-01-31T13:27:38.257Z,99622.05
2023-01-31T13:30:11.787Z,99617.52
2023-01-31T13:32:44.476Z,99623.67
2023-01-31T13:35:45.145Z,99623.92
2023-01-31T13:38:18.436Z,99618.11
2023-01-31T13:40:55.083Z,99615.67
2023-01-31T13:43:22.261Z,99615.05
2023-01-31T13:45:59.239Z,99617.03
2023-01-31T13:48:33.762Z,99616.11
2023-01-31T13:51:21.014Z,99622.05
2023-01-31T13:53:58.839Z,99616.35
2023-01-31T13:56:30.750Z,99615.45
2023-01-31T13:58:59.898Z,99618.55
2023-01-31T14:01:34.716Z,99619.14
2023-01-31T14:04:15.186Z,99616.66
2023-01-31T14:06:54.847Z,99621.12
2023-01-31T14:09:33.614Z,99621.27
2023-01-31T14:12:01.990Z,99625.05
2023-01-31T14:14:42.111Z,99628.39
2023-01-31T14:17:35.838Z,99628.67
2023-01-31T14:20:21.966Z,99632.16
2023-01-31T14:23:27.604Z,99630.09
2023-01-31T14:25:55.418Z,99626.89
2023-01-31T14:28:25.502Z,99635.22
2023-01-31T14:30:53.139Z,99638.84
2023-01-31T14:33:23.832Z,99633.41
2023-01-31T14:36:18.636Z,99631.50
2023-01-31T14:39:08.366Z,99625.23
2023-01-31T14:42:24.377Z,99624.11
2023-01-31T14:45:17.366Z,99625.21
2023-01-31T14:47:48.049Z,99630.63
2023-01-31T14:50:34.470Z,99624.73
2023-01-31T14:53:06.044Z,99627.30
2023-01-31T14:56:00.717Z,99626.99
2023-01-31T14:58:32.364Z,99629.64
2023-01-31T15:01:02.618Z,99631.52
2023-01-31T15:03:59.778Z,99630.52
2023-01-31T15:06:41.230Z,99632.14
2023-01-31T15:09:21.958Z,99625.16
2023-01-31T15:11:51.655Z,99626.96
2023-01-31T15:14:47.483Z,99632.06
2023-01-31T15:17:36.698Z,99627.14
2023-01-31T15:20:21.411Z,99632.86
2023-01-31T15:22:53.765Z,99625.65
2023-01-31T15:25:35.915Z,99623.31
2023-01-31T15:28:07.042Z,99623.37
2023-01-31T15:30:40.722Z,99623.01
2023-01-31T15:33:39.340Z,99624.13
2023-01-31T15:36:33.724Z,99624.96
2023-01-31T15:39:17.893Z,99625.51
2023-01-31T15:41:47.321Z,99622.16
2023-01-31T15:44:22.874Z,99624.47
2023-01-31T15:46:55.352Z,99627.98
2023-01-31T15:49:42.302Z,99629.77
2023-01-31T15:52:21.374Z,99623.36
2023-01-31T15:54:56.997Z,99622.86
2023-01-31T15:57:39.309Z,99622.41
2023-01-31T16:00:09.602Z,99620.04
2023-01-31T16:02:38.742Z,99619.46
2023-01-31T16:05:08.279Z,99618.88
2023-01-31T16:07:37.382Z,99619.59
2023-01-31T16:10:06.412Z,99621.71
2023-01-31T16:12:48.473Z,99625.84
2023-01-31T16:22:58.827Z,99630.51
2023-01-31T16:25:26.107Z,99632.40
2023-01-31T16:27:53.061Z,99630.91
2023-01-31T16:30:20.040Z,99630.89
2023-01-31T16:32:51.660Z,99629.73
2023-01-31T16:35:28.194Z,99627.61
2023-01-31T16:38:08.167Z,99625.55
2023-01-31T16:40:45.547Z,99628.41
2023-01-31T16:43:30.201Z,99623.95
2023-01-31T16:46:00.652Z,99622.82
2023-01-31T16:48:38.928Z,99616.58
2023-01-31T16:51:30.546Z,99614.06
2023-01-31T16:54:18.160Z,99605.10
2023-01-31T16:56:46.815Z,99599.49
2023-01-31T16:59:41.131Z,99597.61
2023-01-31T17:02:24.070Z,99595.02
2023-01-31T17:04:53.966Z,99599.59
2023-01-31T17:07:28.679Z,99597.64
2023-01-31T17:09:58.813Z,99592.48
2023-01-31T17:12:29.137Z,99591.52
2023-01-31T17:15:03.177Z,99587.88
2023-01-31T17:17:34.638Z,99584.77
2023-01-31T17:20:01.935Z,99580.38
2023-01-31T17:22:29.536Z,99582.00
2023-01-31T17:24:56.517Z,99580.55
2023-01-31T17:27:24.239Z,99578.48
2023-01-31T17:29:51.634Z,99573.45
2023-01-31T17:32:21.105Z,99569.77
2023-01-31T17:34:51.274Z,99563.84
2023-01-31T17:37:23.759Z,99563.45
2023-01-31T17:39:57.324Z,99561.53
2023-01-31T17:42:24.460Z,99558.53
2023-01-31T17:44:51.424Z,99553.50
2023-01-31T17:47:18.996Z,99547.21
2023-01-31T17:49:45.836Z,99546.14
2023-01-31T17:52:13.116Z,99539.73
2023-01-31T17:54:40.253Z,99536.16
2023-01-31T17:57:07.303Z,99530.94
2023-01-31T17:59:34.749Z,99528.02
2023-01-31T18:02:03.422Z,99520.70
2023-01-31T18:04:30.391Z,99516.53
2023-01-31T18:06:57.342Z,99509.80
2023-01-31T18:09:26.031Z,99506.00
2023-01-31T18:11:53.193Z,99504.47
2023-01-31T18:14:20.376Z,99501.11
2023-01-31T18:16:50.589Z,99497.91
2023-01-31T18:19:17.732Z,99489.13
2023-01-31T18:21:54.441Z,99482.69
2023-01-31T18:24:22.280Z,99478.70
2023-01-31T18:26:49.666Z,99473.23
2023-01-31T18:29:20.058Z,99463.21
2023-01-31T18:31:48.495Z,99457.19
2023-01-31T18:34:16.548Z,99458.39
2023-01-31T18:36:43.471Z,99453.23
2023-01-31T18:39:11.447Z,99447.63
2023-01-31T18:41:38.603Z,99447.77
2023-01-31T18:44:05.976Z,99444.36
2023-01-31T18:46:32.980Z,99443.38
2023-01-31T18:48:59.957Z,99439.94
2023-01-31T18:51:29.472Z,99439.70
2023-01-31T18:53:56.418Z,99432.25
2023-01-31T18:56:24.090Z,99426.13
2023-01-31T18:58:55.537Z,99424.60
2023-01-31T19:01:25.300Z,99412.34
2023-01-31T19:03:53.784Z,99403.09
2023-01-31T19:06:30.089Z,99399.43
2023-01-31T19:08:58.686Z,99396.61
2023-01-31T19:11:27.638Z,99392.41
2023-01-31T19:13:55.677Z,99395.34
2023-01-31T19:16:26.051Z,99396.29
2023-01-31T19:18:53.556Z,99398.67
2023-01-31T19:21:23.563Z,99396.77
2023-01-31T19:23:55.049Z,99390.34
2023-01-31T19:26:22.326Z,99391.27
2023-01-31T19:28:50.571Z,99387.89
2023-01-31T19:31:21.087Z,99383.02
2023-01-31T19:33:57.790Z,99376.83
2023-01-31T19:36:30.316Z,99373.30
2023-01-31T19:38:59.257Z,99369.94
2023-01-31T19:41:27.600Z,99367.46
2023-01-31T19:43:57.339Z,99363.81
2023-01-31T19:46:29.616Z,99355.38
2023-01-31T19:48:58.015Z,99350.47
2023-01-31T19:51:26.078Z,99343.83
2023-01-31T19:54:04.319Z,99339.14
2023-01-31T19:56:32.745Z,99331.15
2023-01-31T19:59:01.076Z,99327.80
2023-01-31T20:01:28.723Z,99322.38
2023-01-31T20:03:56.076Z,99316.92
2023-01-31T20:06:25.977Z,99309.73
2023-01-31T20:08:59.202Z,99306.65
2023-01-31T20:11:28.801Z,99300.73
2023-01-31T20:13:58.287Z,99296.24
2023-01-31T20:16:25.436Z,99291.94
2023-01-31T20:18:55.072Z,99288.06
2023-01-31T20:21:23.147Z,99283.70
2023-01-31T20:23:50.619Z,99280.42
2023-01-31T20:26:19.669Z,99275.00
2023-01-31T20:28:47.118Z,99265.35
2023-01-31T20:31:15.713Z,99261.34
2023-01-31T20:33:45.683Z,99257.60
2023-01-31T20:36:13.359Z,99251.23
2023-01-31T20:38:40.913Z,99238.36
2023-01-31T20:41:09.517Z,99236.77
2023-01-31T20:43:38.083Z,99231.65
2023-01-31T20:46:11.079Z,99233.34
2023-01-31T20:48:38.984Z,99228.42
2023-01-31T20:51:06.710Z,99223.90
2023-01-31T20:53:34.187Z,99217.09
2023-01-31T20:56:04.195Z,99207.07
2023-01-31T20:58:34.570Z,99200.17
2023-01-31T21:01:05.465Z,99202.07
2023-01-31T21:03:33.947Z,99202.59
2023-01-31T21:06:01.753Z,99201.23
2023-01-31T21:08:29.421Z,99196.66
2023-01-31T21:10:58.028Z,99190.66
2023-01-31T21:13:28.990Z,99186.62
2023-01-31T21:16:03.563Z,99178.37
2023-01-31T21:18:33.260Z,99175.74
2023-01-31T21:21:07.209Z,99173.23
2023-01-31T21:23:35.665Z,99168.55
2023-01-31T21:26:03.828Z,99159.73
2023-01-31T21:28:30.775Z,99158.88
2023-01-31T21:31:00.553Z,99151.14
2023-01-31T21:33:28.678Z,99148.27
2023-01-31T21:35:58.546Z,99144.12
2023-01-31T21:38:25.943Z,99145.61
2023-01-31T21:41:13.578Z,99137.48
2023-01-31T21:43:41.536Z,99131.80
2023-01-31T21:46:13.414Z,99130.81
2023-01-31T21:48:41.073Z,99125.14
2023-01-31T21:51:14.497Z,99121.02
2023-01-31T21:53:42.546Z,99110.75
2023-01-31T21:56:13.087Z,99107.41
2023-01-31T21:58:41.618Z,99099.27
2023-01-31T22:01:19.319Z,99096.09
2023-01-31T22:03:51.758Z,99085.45
2023-01-31T22:06:30.212Z,99080.73
2023-01-31T22:09:00.873Z,99073.61
2023-01-31T22:11:33.410Z,99069.90
2023-01-31T22:14:05.339Z,99065.23
2023-01-31T22:16:32.300Z,99062.36
2023-01-31T22:19:01.479Z,99061.08
2023-01-31T22:21:31.201Z,99054.66
2023-01-31T22:24:00.464Z,99053.23
2023-01-31T22:26:36.064Z,99053.72
2023-01-31T22:29:06.740Z,99046.28
2023-01-31T22:31:34.269Z,99048.23
2023-01-31T22:34:02.223Z,99049.59
2023-01-31T22:36:29.572Z,99043.71
2023-01-31T22:38:56.643Z,99036.74
2023-01-31T22:41:23.786Z,99035.35
2023-01-31T22:43:52.927Z,99030.01
2023-01-31T22:46:23.574Z,99022.45
2023-01-31T22:48:55.604Z,99016.69
2023-01-31T22:51:26.139Z,99017.19
2023-01-31T22:53:54.627Z,99012.27
2023-01-31T22:56:27.989Z,99009.80
2023-01-31T22:58:59.571Z,99015.40
2023-01-31T23:01:29.489Z,99019.88
2023-01-31T23:03:59.744Z,99009.23
2023-01-31T23:06:27.934Z,99004.48
2023-01-31T23:08:55.544Z,99002.67
2023-01-31T23:11:24.544Z,99004.07
2023-01-31T23:13:51.592Z,98994.09
2023-01-31T23:16:43.511Z,98987.52
2023-01-31T23:19:10.892Z,98982.34
2023-01-31T23:21:40.355Z,98980.11
2023-01-31T23:24:08.607Z,98981.48
2023-01-31T23:26:35.604Z,98978.81
2023-01-31T23:29:02.663Z,98976.90
2023-01-31T23:31:29.802Z,98970.60
2023-01-31T23:33:56.876Z,98967.56
2023-01-31T23:36:24.030Z,98958.86
2023-01-31T23:38:50.876Z,98950.18
2023-01-31T23:41:17.833Z,98949.15
2023-01-31T23:43:44.776Z,98939.48
2023-01-31T23:46:11.866Z,98932.98
2023-01-31T23:48:39.811Z,98935.14
2023-01-31T23:51:06.758Z,98931.40
2023-01-31T23:53:33.708Z,98929.96
2023-01-31T23:56:00.652Z,98926.32
2023-01-31T23:58:27.512Z,98918.15
